createdAt,value
2018-04-18T03:32:34.284Z,98.40
2018-04-18T03:35:08.893Z,98.40
2018-04-18T03:37:42.661Z,98.40
2018-04-18T03:40:16.818Z,98.40
2018-04-18T03:42:50.604Z,98.40
2018-04-18T03:45:24.478Z,98.50
2018-04-18T03:47:58.252Z,98.50
2018-04-18T03:50:32.953Z,98.40
2018-04-18T03:53:07.072Z,98.40
2018-04-18T03:55:40.819Z,98.40
2018-04-18T03:58:36.001Z,98.40
2018-04-18T04:01:09.807Z,98.30
2018-04-18T04:03:43.691Z,98.50
2018-04-18T04:06:17.496Z,98.50
2018-04-18T04:08:51.338Z,98.50
2018-04-18T04:11:25.102Z,98.60
2018-04-18T04:13:58.834Z,98.80
2018-04-18T04:19:42.834Z,98.90
2018-04-18T04:22:28.672Z,98.90
2018-04-18T04:25:02.503Z,99.00
2018-04-18T04:27:36.302Z,99.00
2018-04-18T04:30:10.171Z,98.90
2018-04-18T04:32:44.042Z,99.10
2018-04-18T04:35:17.806Z,99.10
2018-04-18T04:37:52.422Z,99.10
2018-04-18T04:40:27.275Z,99.10
2018-04-18T04:43:00.987Z,99.10
2018-04-18T04:45:34.819Z,99.20
2018-04-18T04:48:09.375Z,99.00
2018-04-18T04:50:43.936Z,99.10
2018-04-18T04:53:17.695Z,99.10
2018-04-18T04:55:52.264Z,99.10
2018-04-18T04:58:26.865Z,99.10
2018-04-18T05:01:00.726Z,99.10
2018-04-18T05:03:35.412Z,99.30
2018-04-18T05:06:10.059Z,99.30
2018-04-18T05:08:43.817Z,99.30
2018-04-18T05:11:17.699Z,99.30
2018-04-18T05:13:52.294Z,99.10
2018-04-18T05:16:26.011Z,99.10
2018-04-18T05:18:59.756Z,99.20
2018-04-18T05:21:34.700Z,98.90
2018-04-18T05:24:08.432Z,98.90
2018-04-18T05:26:42.160Z,98.80
2018-04-18T05:29:15.933Z,98.30
2018-04-18T05:31:52.720Z,97.50
2018-04-18T05:34:26.484Z,97.50
2018-04-18T05:37:00.966Z,97.70
2018-04-18T05:39:40.226Z,97.90
2018-04-18T05:42:14.156Z,97.90
2018-04-18T05:44:48.316Z,97.90
2018-04-18T05:47:22.123Z,98.20
2018-04-18T05:49:56.008Z,97.90
2018-04-18T05:52:29.870Z,98.00
2018-04-18T05:55:03.708Z,97.90
2018-04-18T05:57:37.602Z,97.80
2018-04-18T06:00:12.144Z,97.90
2018-04-18T06:02:46.083Z,97.70
2018-04-18T06:05:19.751Z,97.30
2018-04-18T06:07:54.340Z,97.40
2018-04-18T06:10:28.219Z,97.40
2018-04-18T06:13:01.922Z,97.40
2018-04-18T06:15:36.534Z,97.30
2018-04-18T06:18:11.123Z,97.20
2018-04-18T06:20:44.967Z,96.90
2018-04-18T06:23:18.929Z,96.80
2018-04-18T06:25:52.826Z,96.30
2018-04-18T06:28:26.761Z,96.40
2018-04-18T06:31:01.313Z,95.90
2018-04-18T06:33:35.373Z,96.20
2018-04-18T06:36:09.209Z,95.50
2018-04-18T06:38:44.798Z,95.00
2018-04-18T06:41:18.690Z,95.00
2018-04-18T06:43:52.535Z,94.90
2018-04-18T06:46:27.122Z,94.90
2018-04-18T06:49:00.890Z,94.80
2018-04-18T06:51:34.680Z,94.70
2018-04-18T06:54:08.564Z,94.70
2018-04-18T06:56:43.159Z,94.30
2018-04-18T06:59:16.774Z,94.30
2018-04-18T07:01:51.407Z,93.80
2018-04-18T07:04:25.211Z,93.80
2018-04-18T07:06:59.215Z,93.90
2018-04-18T07:09:33.006Z,93.40
2018-04-18T07:12:07.542Z,93.30
2018-04-18T07:14:41.347Z,93.30
2018-04-18T07:17:15.202Z,93.30
2018-04-18T07:19:49.761Z,92.90
2018-04-18T07:22:23.894Z,92.80
2018-04-18T07:24:58.387Z,92.70
2018-04-18T07:27:32.965Z,92.60
2018-04-18T07:30:07.551Z,92.40
2018-04-18T07:32:41.261Z,92.30
2018-04-18T07:35:15.070Z,92.30
2018-04-18T07:37:49.199Z,92.10
2018-04-18T07:40:23.003Z,92.10
2018-04-18T07:42:56.826Z,91.50
2018-04-18T07:45:30.604Z,91.40
2018-04-18T07:48:04.451Z,90.70
2018-04-18T07:50:38.214Z,90.80
2018-04-18T07:53:11.965Z,90.50
2018-04-18T07:55:45.830Z,90.00
2018-04-18T07:58:20.342Z,90.00
2018-04-18T08:00:55.285Z,90.00
2018-04-18T08:03:29.110Z,89.60
2018-04-18T08:06:03.678Z,89.10
2018-04-18T08:08:37.456Z,89.40
2018-04-18T08:11:12.766Z,88.70
2018-04-18T08:13:46.582Z,88.70
2018-04-18T08:16:21.187Z,86.70
2018-04-18T08:18:55.811Z,86.50
2018-04-18T08:21:31.459Z,85.00
2018-04-18T08:24:06.270Z,81.40
2018-04-18T08:26:40.111Z,80.60
2018-04-18T08:29:13.954Z,75.10
2018-04-18T08:31:47.693Z,67.30
2018-04-18T08:34:22.321Z,55.50
2018-04-18T08:36:56.859Z,53.00
2018-04-18T08:39:30.722Z,52.90
2018-04-18T08:42:05.099Z,51.40
2018-04-18T08:44:39.721Z,46.80
2018-04-18T08:47:13.749Z,46.50
2018-04-18T08:49:47.540Z,45.90
2018-04-18T08:52:21.246Z,44.60
2018-04-18T08:54:55.877Z,42.90
2018-04-18T08:57:29.578Z,42.90
2018-04-18T09:00:03.390Z,43.00
2018-04-18T09:02:37.211Z,41.20
2018-04-18T09:05:10.998Z,38.40
2018-04-18T09:07:45.354Z,38.10
2018-04-18T09:10:19.055Z,38.10
2018-04-18T09:12:52.971Z,39.10
2018-04-18T09:15:26.709Z,37.90
2018-04-18T09:18:01.266Z,37.40
2018-04-18T09:20:34.958Z,37.40
2018-04-18T09:23:09.050Z,37.50
2018-04-18T09:25:42.768Z,38.50
2018-04-18T09:28:16.508Z,36.80
2018-04-18T09:30:51.180Z,37.80
2018-04-18T09:33:25.980Z,37.10
2018-04-18T09:35:59.819Z,37.10
2018-04-18T09:38:33.534Z,35.60
2018-04-18T09:41:07.287Z,35.20
2018-04-18T09:43:41.127Z,34.80
2018-04-18T09:46:14.741Z,33.30
2018-04-18T09:48:48.495Z,33.40
2018-04-18T09:51:22.237Z,33.60
2018-04-18T09:53:55.963Z,32.80
2018-04-18T09:56:29.676Z,31.40
2018-04-18T09:59:03.387Z,33.60
2018-04-18T10:01:43.195Z,32.80
2018-04-18T10:04:23.675Z,32.00
2018-04-18T10:06:58.405Z,33.60
2018-04-18T10:09:33.905Z,32.80
2018-04-18T10:12:08.799Z,32.60
2018-04-18T10:14:42.619Z,32.60
2018-04-18T10:17:16.473Z,33.00
2018-04-18T10:19:50.227Z,32.80
2018-04-18T10:22:24.150Z,33.20
2018-04-18T10:24:58.739Z,33.10
2018-04-18T10:27:32.560Z,33.10
2018-04-18T10:30:07.946Z,33.10
2018-04-18T10:32:41.619Z,33.00
2018-04-18T10:35:15.803Z,30.10
2018-04-18T10:37:49.989Z,30.90
2018-04-18T10:40:24.509Z,31.00
2018-04-18T10:42:58.376Z,31.00
2018-04-18T10:45:32.256Z,30.80
2018-04-18T10:48:06.135Z,30.30
2018-04-18T10:50:39.908Z,30.50
2018-04-18T10:53:13.710Z,29.50
2018-04-18T10:55:47.462Z,29.90
2018-04-18T10:58:22.125Z,29.80
2018-04-18T11:00:55.814Z,29.80
2018-04-18T11:03:30.483Z,29.60
2018-04-18T11:06:04.137Z,29.60
2018-04-18T11:08:37.950Z,30.00
2018-04-18T11:11:11.631Z,30.40
2018-04-18T11:13:47.176Z,30.20
2018-04-18T11:16:20.958Z,30.10
2018-04-18T11:18:54.802Z,29.70
2018-04-18T11:21:29.299Z,30.10
2018-04-18T11:24:03.201Z,30.10
2018-04-18T11:26:37.620Z,29.20
2018-04-18T11:29:11.500Z,29.30
2018-04-18T11:31:45.074Z,30.50
2018-04-18T11:34:18.885Z,30.00
2018-04-18T11:36:52.644Z,29.40
2018-04-18T11:39:27.499Z,28.70
2018-04-18T11:42:01.283Z,29.50
2018-04-18T11:44:35.770Z,30.60
2018-04-18T11:47:09.416Z,31.80
2018-04-18T11:49:44.072Z,32.30
2018-04-18T11:52:18.455Z,32.00
2018-04-18T11:54:53.100Z,32.40
2018-04-18T11:57:26.974Z,32.40
2018-04-18T12:00:01.320Z,32.90
2018-04-18T12:02:35.174Z,32.90
2018-04-18T12:05:09.057Z,32.10
2018-04-18T12:07:42.878Z,32.10
2018-04-18T12:10:16.846Z,31.90
2018-04-18T12:12:50.671Z,32.10
2018-04-18T12:15:25.103Z,32.30
2018-04-18T12:17:59.586Z,32.70
2018-04-18T12:20:34.138Z,32.20
2018-04-18T12:23:08.135Z,32.20
2018-04-18T12:25:42.762Z,32.00
2018-04-18T12:28:16.622Z,31.90
2018-04-18T12:30:51.078Z,33.30
2018-04-18T12:33:24.867Z,32.90
2018-04-18T12:35:59.485Z,32.60
2018-04-18T12:38:33.579Z,32.60
2018-04-18T12:41:07.384Z,30.90
2018-04-18T12:43:41.992Z,31.70
2018-04-18T12:46:15.683Z,31.70
2018-04-18T12:48:50.337Z,31.90
2018-04-18T12:51:24.778Z,32.40
2018-04-18T12:53:58.694Z,32.40
2018-04-18T12:56:32.483Z,32.30
2018-04-18T12:59:06.559Z,31.40
2018-04-18T13:01:40.354Z,32.00
2018-04-18T13:04:15.086Z,31.90
2018-04-18T13:06:48.687Z,32.00
2018-04-18T13:09:22.527Z,33.10
2018-04-18T13:11:56.299Z,33.50
2018-04-18T13:14:30.132Z,34.00
2018-04-18T13:17:04.084Z,33.60
2018-04-18T13:19:37.891Z,31.30
2018-04-18T13:22:11.886Z,30.60
2018-04-18T13:24:45.776Z,30.60
2018-04-18T13:27:19.654Z,31.20
2018-04-18T13:29:54.283Z,30.70
2018-04-18T13:32:28.886Z,30.00
2018-04-18T13:35:03.466Z,31.60
2018-04-18T13:37:37.127Z,31.70
2018-04-18T13:40:11.737Z,33.10
2018-04-18T13:42:47.364Z,32.50
2018-04-18T13:45:22.035Z,33.20
2018-04-18T13:47:56.736Z,33.20
2018-04-18T13:50:31.367Z,29.80
2018-04-18T13:53:04.939Z,29.80
2018-04-18T13:55:38.723Z,29.70
2018-04-18T13:58:12.496Z,31.90
2018-04-18T14:00:46.312Z,32.90
2018-04-18T14:03:20.323Z,33.00
2018-04-18T14:05:55.659Z,30.40
2018-04-18T14:08:29.372Z,30.40
2018-04-18T14:11:03.967Z,29.30
2018-04-18T14:13:37.661Z,29.30
2018-04-18T14:16:11.455Z,28.80
2018-04-18T14:18:45.321Z,32.00
2018-04-18T14:21:19.873Z,33.60
2018-04-18T14:23:53.925Z,33.80
2018-04-18T14:26:27.788Z,34.10
2018-04-18T14:29:02.462Z,34.90
2018-04-18T14:31:36.978Z,33.90
2018-04-18T14:34:14.559Z,33.90
2018-04-18T14:36:49.187Z,31.90
2018-04-18T14:39:22.966Z,31.90
2018-04-18T14:41:56.800Z,32.30
2018-04-18T14:44:31.455Z,30.90
2018-04-18T14:47:06.138Z,31.90
2018-04-18T14:49:40.697Z,32.20
2018-04-18T14:52:15.297Z,31.20
2018-04-18T14:54:49.223Z,31.20
2018-04-18T14:57:23.732Z,31.20
2018-04-18T14:59:58.273Z,31.30
2018-04-18T15:02:32.354Z,30.80
2018-04-18T15:05:07.798Z,31.80
2018-04-18T15:07:41.515Z,31.80
2018-04-18T15:10:19.123Z,31.70
2018-04-18T15:12:53.514Z,31.20
2018-04-18T15:15:28.375Z,31.20
2018-04-18T15:18:02.127Z,30.70
2018-04-18T15:20:36.021Z,30.90
2018-04-18T15:23:09.823Z,30.80
2018-04-18T15:25:43.736Z,30.90
2018-04-18T15:28:17.508Z,30.80
2018-04-18T15:30:51.262Z,31.20
2018-04-18T15:33:25.818Z,30.50
2018-04-18T15:36:00.522Z,31.30
2018-04-18T15:38:34.366Z,31.30
2018-04-18T15:41:08.221Z,31.50
2018-04-18T15:43:43.728Z,31.20
2018-04-18T15:46:19.123Z,30.20
2018-04-18T15:48:52.900Z,30.50
2018-04-18T15:51:26.756Z,30.40
2018-04-18T15:54:00.576Z,30.10
2018-04-18T15:56:36.399Z,30.50
2018-04-18T15:59:10.963Z,30.00
2018-04-18T16:01:46.708Z,30.00
2018-04-18T16:04:20.571Z,30.20
2018-04-18T16:06:54.484Z,30.00
2018-04-18T16:09:29.319Z,29.90
2018-04-18T16:12:04.904Z,30.10
2018-04-18T16:14:38.701Z,30.10
2018-04-18T16:17:13.373Z,30.30
2018-04-18T16:19:47.155Z,30.30
2018-04-18T16:22:21.786Z,30.20
2018-04-18T16:24:55.607Z,30.20
2018-04-18T16:27:29.467Z,29.90
2018-04-18T16:30:03.318Z,29.70
2018-04-18T16:32:37.907Z,30.00
2018-04-18T16:35:12.446Z,29.80
2018-04-18T16:37:46.275Z,29.80
2018-04-18T16:40:20.127Z,29.70
2018-04-18T16:42:53.829Z,29.90
2018-04-18T16:45:27.642Z,29.90
2018-04-18T16:48:02.096Z,28.90
2018-04-18T16:50:35.970Z,28.90
2018-04-18T16:53:09.765Z,28.70
2018-04-18T16:55:44.438Z,29.00
2018-04-18T16:58:20.047Z,29.30
2018-04-18T17:00:54.215Z,29.30
2018-04-18T17:03:28.027Z,29.80
2018-04-18T17:06:02.000Z,29.20
2018-04-18T17:08:35.719Z,29.30
2018-04-18T17:11:09.544Z,29.30
2018-04-18T17:13:44.866Z,28.60
2018-04-18T17:16:18.650Z,28.60
2018-04-18T17:18:52.359Z,28.60
2018-04-18T17:21:27.145Z,28.50
2018-04-18T17:24:00.887Z,28.40
2018-04-18T17:26:34.786Z,27.50
2018-04-18T17:29:09.620Z,27.50
2018-04-18T17:31:43.390Z,27.40
2018-04-18T17:34:17.488Z,27.70
2018-04-18T17:36:51.148Z,28.00
2018-04-18T17:39:26.287Z,27.90
2018-04-18T17:42:00.063Z,28.00
2018-04-18T17:44:33.904Z,28.00
2018-04-18T17:47:07.735Z,28.20
2018-04-18T17:49:41.613Z,28.50
2018-04-18T17:52:16.327Z,28.40
2018-04-18T17:54:50.208Z,28.80
2018-04-18T17:57:24.061Z,28.90
2018-04-18T17:59:58.769Z,29.20
2018-04-18T18:02:32.545Z,29.10
2018-04-18T18:05:07.142Z,29.40
2018-04-18T18:07:40.754Z,29.80
2018-04-18T18:10:15.446Z,30.40
2018-04-18T18:12:49.369Z,30.30
2018-04-18T18:15:23.252Z,30.70
2018-04-18T18:17:57.055Z,30.90
2018-04-18T18:20:30.876Z,31.40
2018-04-18T18:23:05.686Z,32.60
2018-04-18T18:25:40.221Z,32.70
2018-04-18T18:28:14.055Z,32.70
2018-04-18T18:30:47.798Z,33.50
2018-04-18T18:33:21.655Z,34.30
2018-04-18T18:35:55.871Z,35.20
2018-04-18T18:38:29.536Z,35.50
2018-04-18T18:41:03.394Z,36.30
2018-04-18T18:43:37.174Z,37.40
2018-04-18T18:46:10.918Z,37.60
2018-04-18T18:48:45.503Z,39.00
2018-04-18T18:51:19.396Z,38.90
2018-04-18T18:53:54.022Z,39.50
2018-04-18T18:56:27.810Z,39.50
2018-04-18T18:59:03.398Z,41.00
2018-04-18T19:01:37.211Z,41.00
2018-04-18T19:04:11.714Z,42.10
2018-04-18T19:06:46.679Z,42.80
2018-04-18T19:09:20.483Z,42.80
2018-04-18T19:11:55.408Z,44.40
2018-04-18T19:14:29.236Z,44.50
2018-04-18T19:17:02.934Z,45.90
2018-04-18T19:19:37.414Z,48.30
2018-04-18T19:22:11.965Z,49.30
2018-04-18T19:24:45.831Z,49.30
2018-04-18T19:27:20.375Z,50.50
2018-04-18T19:29:55.012Z,51.50
2018-04-18T19:32:28.739Z,51.20
2018-04-18T19:35:05.168Z,53.20
2018-04-18T19:37:39.024Z,53.20
2018-04-18T19:40:12.834Z,53.80
2018-04-18T19:42:48.028Z,55.20
2018-04-18T19:45:21.774Z,55.20
2018-04-18T19:47:55.503Z,54.90
2018-04-18T19:50:29.402Z,55.50
2018-04-18T19:53:03.862Z,56.70
2018-04-18T19:55:38.417Z,57.00
2018-04-18T19:58:12.207Z,56.90
2018-04-18T20:00:47.680Z,58.20
2018-04-18T20:03:22.880Z,57.50
2018-04-18T20:05:57.525Z,58.10
2018-04-18T20:08:31.411Z,58.10
2018-04-18T20:11:05.231Z,57.70
2018-04-18T20:13:39.059Z,58.60
2018-04-18T20:16:12.891Z,59.10
2018-04-18T20:18:47.449Z,59.50
2018-04-18T20:21:21.182Z,59.50
2018-04-18T20:23:59.853Z,60.70
2018-04-18T20:26:34.440Z,62.40
2018-04-18T20:29:09.035Z,61.10
2018-04-18T20:31:42.883Z,61.10
2018-04-18T20:34:16.619Z,61.30
2018-04-18T20:36:51.320Z,63.00
2018-04-18T20:39:25.070Z,63.00
2018-04-18T20:41:58.954Z,63.00
2018-04-18T20:44:33.486Z,63.00
2018-04-18T20:47:07.535Z,63.50
2018-04-18T20:49:42.239Z,64.30
2018-04-18T20:52:16.190Z,64.30
2018-04-18T20:54:50.768Z,65.80
2018-04-18T20:57:25.306Z,65.40
2018-04-18T20:59:59.144Z,65.80
